Acar-4 — TC8821 — position and weather

sailwx.info

Track history (hours):
 
Tides and Currents Weather Stations Pressure Air Temp Water Temp Dewpoint Dewpoint Depression Visibility Wind Speed Wind Dir Waves Ship Positions

Acar-4

Last reported at 2017-Sep-12 16:39 UTC. Time now 2017-Sep-22 01:17 UTC.
Position N 36°46' E 031°23'.
Warning: this ship's position is 9 days out of date.

Length 24 m.

Type: Pleasure craft. MMSI: 271045243.

Date/timePositionNaut miles runAvg speedWind from/ knotsBaromVisibWave heightAir tempDewpointWater temp
2017-Sep-12 16:39N 36°46' E 031°23'1 6.2
2017-Sep-12 16:29N 36°45' E 031°24'3 0.3
2017-Sep-12 03:59N 36°45' E 031°28'0 0.0
2017-Sep-12 02:56N 36°45' E 031°28'0 0.0
2017-Sep-12 02:29N 36°45' E 031°28'1 0.1
2017-Sep-11 12:20N 36°47' E 031°27'2 3.5
2017-Sep-11 11:49N 36°45' E 031°28'1 1.8
2017-Sep-11 11:22N 36°45' E 031°29'0 0.0
2017-Sep-11 10:58N 36°45' E 031°29'0 0.0
2017-Sep-11 10:28N 36°45' E 031°29'0 0.0
2017-Sep-11 09:55N 36°45' E 031°29'1 1.4
2017-Sep-11 09:26N 36°44' E 031°30'3 4.8
2017-Sep-11 08:46N 36°47' E 031°27'0 0.0
2017-Sep-11 08:31N 36°47' E 031°27'0 0.0
2017-Sep-11 08:01N 36°47' E 031°27'0 0.9
2017-Sep-11 07:31N 36°46' E 031°27'1 1.8
2017-Sep-11 06:55N 36°45' E 031°28'0 0.0
2017-Sep-11 06:28N 36°45' E 031°28'0 0.0
2017-Sep-11 05:58N 36°45' E 031°28'0 0.0
2017-Sep-11 05:04N 36°45' E 031°28'0 0.0
2017-Sep-11 01:07N 36°45' E 031°28'0 0.0
2017-Sep-11 00:55N 36°45' E 031°28'0 0.0
2017-Sep-11 00:25N 36°45' E 031°28'0 0.0
2017-Sep-10 23:55N 36°45' E 031°28'0 0.0
2017-Sep-10 23:25N 36°45' E 031°28'0 0.0
2017-Sep-10 22:49N 36°45' E 031°28'0 0.0
2017-Sep-10 21:19N 36°45' E 031°28'0 0.0
2017-Sep-10 20:55N 36°45' E 031°28'0 0.0
2017-Sep-10 20:25N 36°45' E 031°28'0 0.0
2017-Sep-10 19:55N 36°45' E 031°28'0 0.0
2017-Sep-10 18:07N 36°45' E 031°28'0 0.0
2017-Sep-10 17:58N 36°45' E 031°28'0 0.0
2017-Sep-10 17:25N 36°45' E 031°28'0 0.0
2017-Sep-10 16:49N 36°45' E 031°28'0 0.0
2017-Sep-10 16:28N 36°45' E 031°28'0 0.0
2017-Sep-10 15:55N 36°45' E 031°28'0 0.0
2017-Sep-10 15:25N 36°45' E 031°28'0 0.0
2017-Sep-10 14:52N 36°45' E 031°28'0 0.0
2017-Sep-10 13:43N 36°45' E 031°28'1 0.9
2017-Sep-10 12:54N 36°46' E 031°27'2 4.6
2017-Sep-10 12:29N 36°45' E 031°29'0 0.4
2017-Sep-10 11:59N 36°45' E 031°29'2 4.9
2017-Sep-10 11:30N 36°47' E 031°27'1 0.7
2017-Sep-10 09:21N 36°45' E 031°28'0 0.0
2017-Sep-10 08:57N 36°45' E 031°28'0 0.0
2017-Sep-09 18:21N 36°45' E 031°28'0 0.0
2017-Sep-09 16:57N 36°45' E 031°28'1 0.3
2017-Sep-09 12:34N 36°47' E 031°27'0 0.6
2017-Sep-09 12:30N 36°46' E 031°27'2 4.9
2017-Sep-09 12:00N 36°45' E 031°29'0 0.1
2017-Sep-09 11:06N 36°45' E 031°29'0 0.0
2017-Sep-09 10:48N 36°45' E 031°29'0 0.0
2017-Sep-09 10:27N 36°45' E 031°29'1 0.1
2017-Sep-08 13:48N 36°45' E 031°28'0 0.0
2017-Sep-08 13:03N 36°45' E 031°28'0 0.0
2017-Sep-08 13:00N 36°45' E 031°28'1 1.3
2017-Sep-08 12:26N 36°46' E 031°27'0 0.0
2017-Sep-08 11:54N 36°46' E 031°27'  
2017-Sep-05 11:06N 36°45' E 031°28'0 0.0
2017-Sep-05 02:30N 36°45' E 031°28'0 0.0
2017-Sep-05 02:00N 36°45' E 031°28'0 0.0
2017-Sep-04 16:36N 36°45' E 031°28'0 0.0
2017-Sep-04 16:27N 36°45' E 031°28'0 0.0
2017-Sep-04 15:09N 36°45' E 031°28'0 0.0
2017-Sep-04 14:54N 36°45' E 031°28'0 0.0
2017-Sep-04 14:30N 36°45' E 031°28'0 0.0
2017-Sep-04 14:00N 36°45' E 031°28'0 0.0
2017-Sep-04 13:30N 36°45' E 031°28'0 0.0
2017-Sep-04 12:57N 36°45' E 031°28'1 1.2
2017-Sep-04 12:19N 36°46' E 031°27'0 1.0
2017-Sep-04 11:50N 36°46' E 031°27'2 4.0
2017-Sep-04 11:16N 36°45' E 031°29'0 0.0
2017-Sep-04 10:52N 36°45' E 031°29'0 0.0
2017-Sep-04 10:07N 36°45' E 031°29'0 0.0
2017-Sep-04 09:55N 36°45' E 031°29'0 1.1
2017-Sep-04 09:29N 36°44' E 031°29'2 0.2
2017-Sep-04 01:09N 36°45' E 031°28'0 0.0
2017-Sep-03 19:45N 36°45' E 031°28'0 0.0
2017-Sep-03 19:30N 36°45' E 031°28'0 0.0
2017-Sep-03 17:30N 36°45' E 031°28'0 0.0
2017-Sep-03 17:00N 36°45' E 031°28'0 0.0
2017-Sep-03 14:42N 36°45' E 031°28'  
Track history (hours):
 
Tides and Currents Weather Stations Pressure Air Temp Water Temp Dewpoint Dewpoint Depression Visibility Wind Speed Wind Dir Waves Ship Positions

Acar-4

Last reported at 2017-Sep-12 16:39 UTC. Time now 2017-Sep-22 01:17 UTC.
Position N 36°46' E 031°23'.
Warning: this ship's position is 9 days out of date.

Length 24 m.

Type: Pleasure craft. MMSI: 271045243.

Date/timePositionNaut miles runAvg speedWind from/ knotsBaromVisibWave heightAir tempDewpointWater temp
2017-Sep-12 16:39N 36°46' E 031°23'1 6.2
2017-Sep-12 16:29N 36°45' E 031°24'3 0.3
2017-Sep-12 03:59N 36°45' E 031°28'0 0.0
2017-Sep-12 02:56N 36°45' E 031°28'0 0.0
2017-Sep-12 02:29N 36°45' E 031°28'1 0.1
2017-Sep-11 12:20N 36°47' E 031°27'2 3.5
2017-Sep-11 11:49N 36°45' E 031°28'1 1.8
2017-Sep-11 11:22N 36°45' E 031°29'0 0.0
2017-Sep-11 10:58N 36°45' E 031°29'0 0.0
2017-Sep-11 10:28N 36°45' E 031°29'0 0.0
2017-Sep-11 09:55N 36°45' E 031°29'1 1.4
2017-Sep-11 09:26N 36°44' E 031°30'3 4.8
2017-Sep-11 08:46N 36°47' E 031°27'0 0.0
2017-Sep-11 08:31N 36°47' E 031°27'0 0.0
2017-Sep-11 08:01N 36°47' E 031°27'0 0.9
2017-Sep-11 07:31N 36°46' E 031°27'1 1.8
2017-Sep-11 06:55N 36°45' E 031°28'0 0.0
2017-Sep-11 06:28N 36°45' E 031°28'0 0.0
2017-Sep-11 05:58N 36°45' E 031°28'0 0.0
2017-Sep-11 05:04N 36°45' E 031°28'0 0.0
2017-Sep-11 01:07N 36°45' E 031°28'0 0.0
2017-Sep-11 00:55N 36°45' E 031°28'0 0.0
2017-Sep-11 00:25N 36°45' E 031°28'0 0.0
2017-Sep-10 23:55N 36°45' E 031°28'0 0.0
2017-Sep-10 23:25N 36°45' E 031°28'0 0.0
2017-Sep-10 22:49N 36°45' E 031°28'0 0.0
2017-Sep-10 21:19N 36°45' E 031°28'0 0.0
2017-Sep-10 20:55N 36°45' E 031°28'0 0.0
2017-Sep-10 20:25N 36°45' E 031°28'0 0.0
2017-Sep-10 19:55N 36°45' E 031°28'0 0.0
2017-Sep-10 18:07N 36°45' E 031°28'0 0.0
2017-Sep-10 17:58N 36°45' E 031°28'0 0.0
2017-Sep-10 17:25N 36°45' E 031°28'0 0.0
2017-Sep-10 16:49N 36°45' E 031°28'0 0.0
2017-Sep-10 16:28N 36°45' E 031°28'0 0.0
2017-Sep-10 15:55N 36°45' E 031°28'0 0.0
2017-Sep-10 15:25N 36°45' E 031°28'0 0.0
2017-Sep-10 14:52N 36°45' E 031°28'0 0.0
2017-Sep-10 13:43N 36°45' E 031°28'1 0.9
2017-Sep-10 12:54N 36°46' E 031°27'2 4.6
2017-Sep-10 12:29N 36°45' E 031°29'0 0.4
2017-Sep-10 11:59N 36°45' E 031°29'2 4.9
2017-Sep-10 11:30N 36°47' E 031°27'1 0.7
2017-Sep-10 09:21N 36°45' E 031°28'0 0.0
2017-Sep-10 08:57N 36°45' E 031°28'0 0.0
2017-Sep-09 18:21N 36°45' E 031°28'0 0.0
2017-Sep-09 16:57N 36°45' E 031°28'1 0.3
2017-Sep-09 12:34N 36°47' E 031°27'0 0.6
2017-Sep-09 12:30N 36°46' E 031°27'2 4.9
2017-Sep-09 12:00N 36°45' E 031°29'0 0.1
2017-Sep-09 11:06N 36°45' E 031°29'0 0.0
2017-Sep-09 10:48N 36°45' E 031°29'0 0.0
2017-Sep-09 10:27N 36°45' E 031°29'1 0.1
2017-Sep-08 13:48N 36°45' E 031°28'0 0.0
2017-Sep-08 13:03N 36°45' E 031°28'0 0.0
2017-Sep-08 13:00N 36°45' E 031°28'1 1.3
2017-Sep-08 12:26N 36°46' E 031°27'0 0.0
2017-Sep-08 11:54N 36°46' E 031°27'  
2017-Sep-05 11:06N 36°45' E 031°28'0 0.0
2017-Sep-05 02:30N 36°45' E 031°28'0 0.0
2017-Sep-05 02:00N 36°45' E 031°28'0 0.0
2017-Sep-04 16:36N 36°45' E 031°28'0 0.0
2017-Sep-04 16:27N 36°45' E 031°28'0 0.0
2017-Sep-04 15:09N 36°45' E 031°28'0 0.0
2017-Sep-04 14:54N 36°45' E 031°28'0 0.0
2017-Sep-04 14:30N 36°45' E 031°28'0 0.0
2017-Sep-04 14:00N 36°45' E 031°28'0 0.0
2017-Sep-04 13:30N 36°45' E 031°28'0 0.0
2017-Sep-04 12:57N 36°45' E 031°28'1 1.2
2017-Sep-04 12:19N 36°46' E 031°27'0 1.0
2017-Sep-04 11:50N 36°46' E 031°27'2 4.0
2017-Sep-04 11:16N 36°45' E 031°29'0 0.0
2017-Sep-04 10:52N 36°45' E 031°29'0 0.0
2017-Sep-04 10:07N 36°45' E 031°29'0 0.0
2017-Sep-04 09:55N 36°45' E 031°29'0 1.1
2017-Sep-04 09:29N 36°44' E 031°29'2 0.2
2017-Sep-04 01:09N 36°45' E 031°28'0 0.0
2017-Sep-03 19:45N 36°45' E 031°28'0 0.0
2017-Sep-03 19:30N 36°45' E 031°28'0 0.0
2017-Sep-03 17:30N 36°45' E 031°28'0 0.0
2017-Sep-03 17:00N 36°45' E 031°28'0 0.0
2017-Sep-03 14:42N 36°45' E 031°28'  

Dump ship's entire track history